Time;durP1;ratioP1;P1;durP2;ratioP2;P2;SDS_P1;SDS_P2;PMS_P1;PMS_P2;Temp;Humidity;BMP_temperature;BMP_pressure;BME280_temperature;BME280_humidity;BME280_pressure;Samples;Min_cycle;Max_cycle;Signal;HPM_P1;HPM_P2
2022/10/22 00:00:05;;;;;;;4.00;0.60;;;;;;;9.74;100.00;92856.03;2126373;27;20022;-73
2022/10/22 00:01:06;;;;;;;2.05;0.88;;;;;;;9.77;100.00;92857.88;2127260;27;20062;-73
2022/10/22 00:02:07;;;;;;;2.45;0.90;;;;;;;9.74;100.00;92859.44;2114409;27;20034;-74
2022/10/22 00:03:08;;;;;;;1.58;0.65;;;;;;;9.67;100.00;92856.19;2121761;27;20022;-73
2022/10/22 00:04:09;;;;;;;2.85;0.60;;;;;;;9.85;100.00;92856.53;2127349;27;20368;-74
2022/10/22 00:05:10;;;;;;;2.22;0.70;;;;;;;9.84;100.00;92863.06;2126853;27;20026;-74
2022/10/22 00:06:11;;;;;;;1.40;0.70;;;;;;;9.76;100.00;92859.78;2127848;27;20031;-74
2022/10/22 00:07:13;;;;;;;1.60;0.50;;;;;;;9.78;100.00;92870.03;2126944;27;20023;-73
2022/10/22 00:08:14;;;;;;;2.75;0.60;;;;;;;9.74;100.00;92866.69;2130188;27;20030;-74
2022/10/22 00:09:16;;;;;;;0.75;0.57;;;;;;;9.73;100.00;92859.88;2124098;27;20027;-75
2022/10/22 00:10:17;;;;;;;2.47;0.65;;;;;;;9.69;100.00;92853.84;2126803;27;20477;-74
2022/10/22 00:11:19;;;;;;;2.25;0.65;;;;;;;9.66;100.00;92857.34;2127099;27;20587;-73
2022/10/22 00:12:20;;;;;;;2.35;0.50;;;;;;;9.66;100.00;92846.66;2127070;27;20047;-74
2022/10/22 00:13:21;;;;;;;1.98;0.57;;;;;;;9.68;100.00;92837.09;2128016;27;20405;-73
2022/10/22 00:14:22;;;;;;;1.90;0.65;;;;;;;9.84;100.00;92826.44;2131180;27;20102;-74
2022/10/22 00:15:23;;;;;;;3.67;0.60;;;;;;;9.71;100.00;92822.19;2127134;27;20492;-73
2022/10/22 00:16:24;;;;;;;1.08;0.50;;;;;;;9.66;100.00;92815.41;2125296;27;20039;-75
2022/10/22 00:17:25;;;;;;;1.45;0.60;;;;;;;9.70;100.00;92821.44;2126960;27;20115;-74
2022/10/22 00:18:26;;;;;;;2.15;0.60;;;;;;;9.64;100.00;92819.66;2126436;27;20035;-73
2022/10/22 00:19:27;;;;;;;1.08;0.60;;;;;;;9.61;100.00;92823.16;2128343;27;20072;-73
2022/10/22 00:20:28;;;;;;;3.30;0.73;;;;;;;9.61;100.00;92823.91;2130244;27;20026;-73
2022/10/22 00:21:29;;;;;;;2.25;0.68;;;;;;;9.65;100.00;92815.81;2126840;27;20015;-74
2022/10/22 00:22:30;;;;;;;2.85;0.63;;;;;;;9.58;100.00;92822.84;2127120;27;20050;-72
2022/10/22 00:23:31;;;;;;;3.58;0.60;;;;;;;9.61;100.00;92834.56;2126189;27;20030;-73
2022/10/22 00:24:33;;;;;;;3.60;0.68;;;;;;;9.61;100.00;92844.50;2127657;27;20114;-74
2022/10/22 00:25:35;;;;;;;4.13;0.73;;;;;;;9.57;100.00;92842.69;2126963;27;20023;-74
2022/10/22 00:26:36;;;;;;;1.77;0.80;;;;;;;9.58;100.00;92846.84;2128285;27;20035;-73
2022/10/22 00:27:37;;;;;;;5.25;0.80;;;;;;;9.57;100.00;92847.28;2127122;27;20045;-73
2022/10/22 00:28:38;;;;;;;1.08;0.80;;;;;;;9.56;100.00;92857.16;2126463;27;20023;-73
2022/10/22 00:29:39;;;;;;;5.20;0.80;;;;;;;9.53;100.00;92851.94;2130736;27;20477;-73
2022/10/22 00:30:40;;;;;;;2.42;0.60;;;;;;;9.45;100.00;92856.66;2127057;27;20030;-73
2022/10/22 00:31:42;;;;;;;1.67;0.68;;;;;;;9.46;100.00;92863.50;2126760;27;20045;-73
2022/10/22 00:32:43;;;;;;;9.15;0.60;;;;;;;9.53;100.00;92859.94;2126873;27;20038;-74
2022/10/22 00:33:45;;;;;;;0.50;0.40;;;;;;;9.50;100.00;92874.84;2126588;27;20057;-73
2022/10/22 00:34:46;;;;;;;2.70;0.57;;;;;;;9.50;100.00;92876.75;2127251;27;20030;-73
2022/10/22 00:35:47;;;;;;;0.70;0.40;;;;;;;9.50;100.00;92888.19;2128464;27;20082;-73
2022/10/22 00:36:50;;;;;;;4.78;0.80;;;;;;;9.53;100.00;92874.03;2129040;27;20031;-72
2022/10/22 00:37:51;;;;;;;1.20;0.50;;;;;;;9.53;100.00;92867.94;2129395;27;20108;-73
2022/10/22 00:38:52;;;;;;;1.38;0.43;;;;;;;9.55;100.00;92871.69;2129427;27;20065;-73
2022/10/22 00:39:53;;;;;;;3.80;0.50;;;;;;;9.54;100.00;92874.78;2128407;27;20027;-74
2022/10/22 00:40:54;;;;;;;2.83;0.50;;;;;;;9.59;100.00;92883.03;2127017;27;20039;-73
2022/10/22 00:41:56;;;;;;;1.88;0.60;;;;;;;9.52;100.00;92888.50;2126791;27;20027;-72
2022/10/22 00:42:57;;;;;;;0.52;0.40;;;;;;;9.51;100.00;92891.59;2123807;27;20022;-74
2022/10/22 00:44:04;;;;;;;0.80;0.43;;;;;;;9.56;100.00;92893.78;2126921;27;20019;-76
2022/10/22 00:45:10;;;;;;;1.50;0.45;;;;;;;9.64;100.00;92899.72;2130340;27;20026;-73
2022/10/22 00:46:11;;;;;;;1.25;0.50;;;;;;;9.64;100.00;92902.38;2123442;27;20027;-73
2022/10/22 00:47:14;;;;;;;1.15;0.50;;;;;;;9.57;100.00;92897.97;2125967;27;20032;-73
2022/10/22 00:48:20;;;;;;;0.60;0.40;;;;;;;9.64;100.00;92900.47;2127034;27;20034;-74
2022/10/22 00:49:21;;;;;;;2.78;0.70;;;;;;;9.62;100.00;92902.06;2126870;27;20049;-72
2022/10/22 00:50:28;;;;;;;2.83;0.50;;;;;;;9.58;100.00;92897.53;2128400;27;20883;-73
2022/10/22 00:51:32;;;;;;;0.40;0.40;;;;;;;9.62;100.00;92894.06;2126897;27;20035;-75
2022/10/22 00:52:34;;;;;;;2.47;0.88;;;;;;;9.51;100.00;92889.69;2126766;27;20483;-74
2022/10/22 00:53:38;;;;;;;8.40;0.60;;;;;;;9.56;100.00;92896.44;2126532;27;20019;-74
2022/10/22 00:54:41;;;;;;;1.38;0.47;;;;;;;9.56;100.00;92904.44;2125119;27;20452;-73
2022/10/22 00:55:45;;;;;;;2.47;0.50;;;;;;;9.56;100.00;92905.19;2127313;27;20034;-73
2022/10/22 00:56:48;;;;;;;1.42;0.50;;;;;;;9.53;100.00;92906.03;2128668;27;20472;-73
2022/10/22 00:57:49;;;;;;;1.38;0.60;;;;;;;9.53;100.00;92911.38;2126453;27;20030;-73
2022/10/22 00:58:56;;;;;;;2.38;0.68;;;;;;;9.47;100.00;92909.59;2126731;27;20151;-74
2022/10/22 00:59:57;;;;;;;2.88;0.52;;;;;;;9.53;100.00;92907.97;2126460;27;20031;-74
2022/10/22 01:00:58;;;;;;;0.95;0.65;;;;;;;9.55;100.00;92917.03;2128306;27;20117;-74
2022/10/22 01:01:59;;;;;;;2.17;0.60;;;;;;;9.57;100.00;92914.72;2127838;27;20072;-73
2022/10/22 01:03:00;;;;;;;1.27;0.90;;;;;;;9.58;100.00;92918.91;2126129;27;20493;-75
2022/10/22 01:04:01;;;;;;;4.28;0.70;;;;;;;9.51;100.00;92915.63;2126566;27;20049;-75
2022/10/22 01:05:03;;;;;;;1.92;0.73;;;;;;;9.55;100.00;92913.63;2126714;27;20027;-75
2022/10/22 01:06:05;;;;;;;2.70;0.93;;;;;;;9.52;100.00;92917.13;2127571;27;20025;-74
2022/10/22 01:07:14;;;;;;;1.73;0.90;;;;;;;9.53;100.00;92913.31;2117451;27;20034;-74
2022/10/22 01:08:24;;;;;;;1.38;0.70;;;;;;;9.53;100.00;92922.06;2114144;27;20109;-75
2022/10/22 01:09:25;;;;;;;;;;;;;;;9.54;100.00;92920.88;2127060;27;20354;-73
2022/10/22 01:10:52;;;;;;;3.30;0.80;;;;;;;9.53;100.00;92929.31;2126626;27;19955;-74
2022/10/22 01:12:16;;;;;;;1.02;0.77;;;;;;;9.51;100.00;92924.38;2126362;27;20027;-74
2022/10/22 01:13:28;;;;;;;3.25;0.70;;;;;;;9.58;100.00;92931.47;2125917;27;20035;-74
2022/10/22 01:15:13;;;;;;;2.05;0.80;;;;;;;9.61;100.00;92925.31;2126644;27;20465;-73
2022/10/22 01:16:33;;;;;;;1.15;0.60;;;;;;;9.64;100.00;92921.06;2100212;28;20113;-75
2022/10/22 01:17:41;;;;;;;;;;;;;;;9.58;100.00;92916.22;2108902;27;20024;-73
2022/10/22 01:19:21;;;;;;;0.88;0.63;;;;;;;9.57;100.00;92921.97;2118430;27;19927;-73
2022/10/22 01:20:34;;;;;;;0.55;0.50;;;;;;;9.59;100.00;92925.72;2099722;27;20051;-74
2022/10/22 01:21:44;;;;;;;1.25;0.73;;;;;;;9.61;100.00;92919.22;2129930;27;20019;-72
2022/10/22 01:22:54;;;;;;;;;;;;;;;9.63;100.00;92927.56;2127959;27;20022;-73
2022/10/22 01:24:28;;;;;;;1.00;0.60;;;;;;;9.55;100.00;92917.03;2126646;27;19921;-73
2022/10/22 01:25:51;;;;;;;5.30;0.75;;;;;;;9.59;100.00;92914.31;2130260;27;20026;-73
2022/10/22 01:27:25;;;;;;;2.58;0.90;;;;;;;9.59;100.00;92914.31;2128297;27;20914;-73
2022/10/22 01:28:41;;;;;;;1.92;1.00;;;;;;;9.62;100.00;92908.16;2126555;27;20030;-74
2022/10/22 01:30:01;;;;;;;3.58;1.15;;;;;;;9.65;100.00;92895.88;2126224;27;20048;-75
2022/10/22 01:31:03;;;;;;;4.93;1.23;;;;;;;9.68;100.00;92895.06;2117353;27;20031;-74
2022/10/22 01:32:15;;;;;;;1.52;1.20;;;;;;;9.66;100.00;92889.38;2120243;27;20062;-74
2022/10/22 01:33:20;;;;;;;1.90;1.15;;;;;;;9.64;100.00;92889.03;2116934;27;20548;-74
2022/10/22 01:34:23;;;;;;;5.90;0.98;;;;;;;9.76;100.00;92886.47;2108815;28;20115;-74
2022/10/22 01:35:33;;;;;;;1.20;1.00;;;;;;;9.65;100.00;92875.28;2117756;27;20605;-74
2022/10/22 01:36:34;;;;;;;;;;;;;;;9.63;100.00;92869.63;2126877;27;20113;-74
2022/10/22 01:37:42;;;;;;;2.83;1.13;;;;;;;9.65;100.00;92879.88;2130167;27;19918;-74
2022/10/22 01:38:45;;;;;;;2.85;1.10;;;;;;;9.66;100.00;92871.47;2126563;27;20037;-74
2022/10/22 01:39:47;;;;;;;3.60;1.23;;;;;;;9.64;100.00;92873.03;2126189;27;20030;-73
2022/10/22 01:40:52;;;;;;;2.05;0.95;;;;;;;9.61;100.00;92874.59;2126300;27;20023;-72
2022/10/22 01:41:55;;;;;;;1.40;0.88;;;;;;;9.58;100.00;92876.19;2126354;27;20163;-73
2022/10/22 01:42:58;;;;;;;0.90;0.90;;;;;;;9.64;100.00;92875.69;2128463;27;20030;-73
2022/10/22 01:43:59;;;;;;;2.53;1.15;;;;;;;9.63;100.00;92876.88;2126375;27;20027;-73
2022/10/22 01:45:00;;;;;;;2.20;1.40;;;;;;;9.59;100.00;92876.94;2126093;27;20027;-72
2022/10/22 01:46:05;;;;;;;2.13;1.10;;;;;;;9.59;100.00;92872.34;2122969;27;20462;-73
2022/10/22 01:47:31;;;;;;;1.35;0.80;;;;;;;9.56;100.00;92873.19;2126312;27;20106;-74
2022/10/22 01:48:57;;;;;;;2.85;0.98;;;;;;;9.56;100.00;92875.09;2126353;27;20064;-74
2022/10/22 01:50:15;;;;;;;1.27;1.10;;;;;;;9.57;100.00;92877.38;2126151;27;20043;-74
2022/10/22 01:51:35;;;;;;;1.85;0.90;;;;;;;9.56;100.00;92883.09;2126199;27;20038;-73
2022/10/22 01:52:54;;;;;;;0.90;0.90;;;;;;;9.53;100.00;92871.34;2120519;27;20027;-73
2022/10/22 01:54:22;;;;;;;2.60;1.10;;;;;;;9.53;100.00;92883.94;2119710;27;20035;-73
2022/10/22 01:56:09;;;;;;;1.10;1.00;;;;;;;9.54;100.00;92891.53;2125946;27;20045;-73
2022/10/22 01:57:19;;;;;;;8.88;2.00;;;;;;;9.66;100.00;92903.50;2123844;27;20469;-72
2022/10/22 01:59:16;;;;;;;1.83;1.10;;;;;;;9.80;100.00;92907.75;2127876;27;20074;-74
2022/10/22 02:00:18;;;;;;;2.10;0.90;;;;;;;9.97;100.00;92903.19;2093474;28;20039;-73
2022/10/22 02:01:30;;;;;;;1.30;0.95;;;;;;;9.83;100.00;92907.69;2096566;28;20040;-72
2022/10/22 02:02:46;;;;;;;2.40;1.10;;;;;;;9.93;100.00;92924.63;2116282;27;20038;-73
2022/10/22 02:03:58;;;;;;;3.78;1.15;;;;;;;9.94;100.00;92922.69;2129129;27;20439;-72
2022/10/22 02:05:05;;;;;;;6.00;1.02;;;;;;;9.84;100.00;92914.53;2116308;27;20470;-71
2022/10/22 02:06:16;;;;;;;3.05;0.90;;;;;;;9.74;100.00;92915.50;2109177;28;20035;-73
2022/10/22 02:07:21;;;;;;;2.40;1.27;;;;;;;9.75;100.00;92913.59;2118813;27;20082;-73
2022/10/22 02:08:27;;;;;;;5.75;0.90;;;;;;;9.63;100.00;92909.66;2127972;27;20027;-73
2022/10/22 02:09:30;;;;;;;5.72;1.00;;;;;;;9.61;100.00;92919.97;2118213;27;20024;-73
2022/10/22 02:10:32;;;;;;;3.13;0.90;;;;;;;9.64;100.00;92910.41;2117643;27;20102;-72
2022/10/22 02:11:33;;;;;;;4.63;1.00;;;;;;;9.61;100.00;92911.22;2116715;27;20038;-73
2022/10/22 02:12:34;;;;;;;3.08;1.20;;;;;;;9.59;100.00;92907.03;2108650;28;20032;-74
2022/10/22 02:13:43;;;;;;;3.15;0.80;;;;;;;9.66;100.00;92905.38;2118453;27;20019;-74
2022/10/22 02:16:10;;;;;;;;;;;;;;;9.62;100.00;92912.75;2142691;27;20542;-73
2022/10/22 02:17:18;;;;;;;2.35;0.80;;;;;;;9.59;100.00;92912.38;2142397;27;20017;-76
2022/10/22 02:18:23;;;;;;;5.68;0.70;;;;;;;9.57;100.00;92917.41;2141029;27;20030;-75
2022/10/22 02:19:41;;;;;;;2.47;0.70;;;;;;;9.66;100.00;92921.41;2141955;27;20116;-72
2022/10/22 02:20:42;;;;;;;1.75;0.90;;;;;;;9.69;100.00;92928.56;2138839;27;20154;-72
2022/10/22 02:21:44;;;;;;;4.40;0.80;;;;;;;9.69;100.00;92925.91;2142078;27;20034;-75
2022/10/22 02:22:46;;;;;;;0.70;0.65;;;;;;;9.63;100.00;92932.91;2142365;27;20053;-73
2022/10/22 02:23:48;;;;;;;4.20;0.80;;;;;;;9.64;100.00;92929.81;2140453;27;20038;-73
2022/10/22 02:24:49;;;;;;;1.92;1.17;;;;;;;9.63;100.00;92935.59;2142284;27;20014;-73
2022/10/22 02:25:58;;;;;;;3.83;1.10;;;;;;;9.65;100.00;92934.00;2142329;27;20106;-73
2022/10/22 02:27:24;;;;;;;3.08;0.80;;;;;;;9.59;100.00;92933.72;2142013;27;20029;-73
2022/10/22 02:28:44;;;;;;;1.38;0.93;;;;;;;9.62;100.00;92937.50;2140572;27;20042;-73
2022/10/22 02:29:54;;;;;;;1.77;0.85;;;;;;;9.65;100.00;92950.00;2131770;27;20487;-75
2022/10/22 02:31:02;;;;;;;1.73;0.80;;;;;;;9.61;100.00;92956.56;2142161;27;20045;-73
2022/10/22 02:32:06;;;;;;;4.05;1.00;;;;;;;9.62;100.00;92958.09;2141872;27;20477;-73
2022/10/22 02:33:19;;;;;;;0.80;0.77;;;;;;;9.54;100.00;92960.91;2141886;27;20379;-72
2022/10/22 02:34:25;;;;;;;2.33;0.90;;;;;;;9.57;100.00;92960.09;2139551;27;20109;-72
2022/10/22 02:35:28;;;;;;;6.82;0.70;;;;;;;9.60;100.00;92963.84;2142031;27;20026;-75
2022/10/22 02:36:29;;;;;;;1.02;0.55;;;;;;;9.54;100.00;92963.56;2142146;27;20117;-75
2022/10/22 02:37:31;;;;;;;1.92;0.88;;;;;;;9.54;100.00;92955.56;2141886;27;20054;-72
2022/10/22 02:38:34;;;;;;;2.83;0.85;;;;;;;9.54;100.00;92952.91;2142296;27;20414;-72
2022/10/22 02:39:36;;;;;;;1.52;0.95;;;;;;;9.53;100.00;92938.06;2142118;27;20302;-74
2022/10/22 02:40:38;;;;;;;1.50;0.98;;;;;;;9.59;100.00;92936.41;2133516;27;20022;-73
2022/10/22 02:41:39;;;;;;;1.42;0.80;;;;;;;9.64;100.00;92937.06;2141979;27;20034;-73
2022/10/22 02:42:42;;;;;;;1.65;0.95;;;;;;;9.59;100.00;92939.06;2141931;27;20026;-72
2022/10/22 02:43:53;;;;;;;2.15;0.90;;;;;;;9.61;100.00;92935.97;2141826;27;20042;-74
2022/10/22 02:44:54;;;;;;;1.45;0.77;;;;;;;9.57;100.00;92935.31;2140287;27;20030;-72
2022/10/22 02:45:55;;;;;;;2.55;0.80;;;;;;;9.57;100.00;92938.00;2139220;27;20030;-74
2022/10/22 02:46:57;;;;;;;0.60;0.60;;;;;;;9.53;100.00;92935.41;2142203;27;20037;-72
2022/10/22 02:47:58;;;;;;;2.25;0.60;;;;;;;9.61;100.00;92941.31;2141826;27;20029;-74
2022/10/22 02:48:59;;;;;;;0.70;0.70;;;;;;;9.69;100.00;92942.66;2138887;27;20641;-73
2022/10/22 02:50:00;;;;;;;3.08;0.73;;;;;;;9.63;100.00;92946.25;2142096;27;20570;-76
2022/10/22 02:51:01;;;;;;;1.90;0.55;;;;;;;9.59;100.00;92935.66;2143486;27;20026;-76
2022/10/22 02:52:02;;;;;;;1.42;1.08;;;;;;;9.58;100.00;92939.50;2142013;27;20451;-73
2022/10/22 02:53:03;;;;;;;2.88;0.70;;;;;;;9.56;100.00;92928.47;2132823;27;20031;-74
2022/10/22 02:54:05;;;;;;;5.18;0.88;;;;;;;9.51;100.00;92920.94;2133035;27;20152;-73
2022/10/22 02:55:06;;;;;;;4.20;0.77;;;;;;;9.52;100.00;92922.44;2141693;27;20050;-73
2022/10/22 02:56:07;;;;;;;0.75;0.75;;;;;;;9.48;100.00;92911.88;2128756;27;20491;-75
2022/10/22 02:57:08;;;;;;;1.23;0.80;;;;;;;9.50;100.00;92911.44;2142013;27;20062;-75
2022/10/22 02:58:09;;;;;;;0.68;0.65;;;;;;;9.50;100.00;92906.88;2141852;27;20600;-73
2022/10/22 02:59:10;;;;;;;1.80;0.85;;;;;;;9.46;100.00;92911.53;2132279;27;20393;-73
2022/10/22 03:00:12;;;;;;;0.93;0.60;;;;;;;9.41;100.00;92911.25;2132758;27;20026;-75
2022/10/22 03:01:13;;;;;;;5.82;0.80;;;;;;;9.42;100.00;92907.41;2130718;27;20042;-75
2022/10/22 03:02:14;;;;;;;1.50;0.77;;;;;;;9.44;100.00;92897.84;2141946;27;20030;-73
2022/10/22 03:03:15;;;;;;;1.20;0.70;;;;;;;9.44;100.00;92905.84;2144048;27;20414;-75
2022/10/22 03:04:16;;;;;;;1.38;0.70;;;;;;;9.47;100.00;92906.94;2142012;27;20467;-73
2022/10/22 03:05:17;;;;;;;1.80;0.80;;;;;;;9.47;100.00;92909.59;2141217;27;20038;-72
2022/10/22 03:06:18;;;;;;;0.80;0.60;;;;;;;9.49;100.00;92915.28;2140807;27;20367;-74
2022/10/22 03:07:19;;;;;;;1.45;0.93;;;;;;;9.51;100.00;92907.59;2137653;27;20090;-72
2022/10/22 03:08:20;;;;;;;0.93;0.85;;;;;;;9.46;100.00;92914.19;2141757;27;20017;-76
2022/10/22 03:09:21;;;;;;;4.65;1.00;;;;;;;9.53;100.00;92907.97;2141596;27;20062;-75
2022/10/22 03:10:22;;;;;;;1.67;1.25;;;;;;;9.51;100.00;92911.03;2139840;27;20027;-72
2022/10/22 03:11:23;;;;;;;4.47;1.10;;;;;;;9.51;100.00;92911.03;2139940;27;20066;-72
2022/10/22 03:12:24;;;;;;;1.25;1.00;;;;;;;9.51;100.00;92908.34;2141931;27;20041;-72
2022/10/22 03:13:25;;;;;;;0.90;0.90;;;;;;;9.55;100.00;92906.38;2132192;27;20034;-72
2022/10/22 03:14:26;;;;;;;1.25;0.80;;;;;;;9.49;100.00;92909.94;2132205;27;20448;-74
2022/10/22 03:15:27;;;;;;;2.65;1.00;;;;;;;9.54;100.00;92902.22;2138818;27;20221;-76
2022/10/22 03:16:28;;;;;;;2.05;0.90;;;;;;;9.45;100.00;92911.94;2141730;27;20627;-74
2022/10/22 03:17:29;;;;;;;1.45;0.98;;;;;;;9.46;100.00;92911.53;2140653;27;20049;-73
2022/10/22 03:18:30;;;;;;;1.92;0.90;;;;;;;9.42;100.00;92915.44;2138088;27;20038;-73
2022/10/22 03:19:31;;;;;;;3.47;0.77;;;;;;;9.42;100.00;92912.75;2141131;27;20026;-72
2022/10/22 03:20:32;;;;;;;3.65;0.75;;;;;;;9.42;100.00;92913.50;2146886;27;20018;-74
2022/10/22 03:21:37;;;;;;;1.05;0.70;;;;;;;9.42;100.00;92908.16;2141606;27;20050;-71
2022/10/22 03:22:41;;;;;;;0.93;0.77;;;;;;;9.45;100.00;92909.28;2140116;27;20133;-74
2022/10/22 03:23:42;;;;;;;0.68;0.68;;;;;;;9.44;100.00;92905.84;2143516;27;20026;-72
2022/10/22 03:24:47;;;;;;;1.08;0.57;;;;;;;9.45;100.00;92911.94;2142145;27;20061;-73
2022/10/22 03:25:48;;;;;;;5.90;0.70;;;;;;;9.44;100.00;92910.41;2140704;27;20025;-72
2022/10/22 03:26:50;;;;;;;4.32;0.70;;;;;;;9.43;100.00;92912.34;2135888;27;20039;-72
2022/10/22 03:27:55;;;;;;;2.45;1.05;;;;;;;9.46;100.00;92908.84;2133668;27;20030;-74
2022/10/22 03:28:56;;;;;;;3.00;0.80;;;;;;;9.47;100.00;92914.94;2135947;27;20018;-76
2022/10/22 03:29:58;;;;;;;2.22;0.70;;;;;;;9.51;100.00;92908.34;2135733;27;20044;-73
2022/10/22 03:30:59;;;;;;;2.30;0.60;;;;;;;9.52;100.00;92920.53;2135908;27;20019;-72
2022/10/22 03:32:00;;;;;;;1.40;0.40;;;;;;;9.49;100.00;92916.03;2135030;27;20330;-72
2022/10/22 03:33:01;;;;;;;4.05;0.60;;;;;;;9.51;100.00;92921.69;2135494;27;20026;-72
2022/10/22 03:34:02;;;;;;;3.40;0.40;;;;;;;9.53;100.00;92922.06;2135971;27;20026;-74
2022/10/22 03:35:06;;;;;;;2.20;0.50;;;;;;;9.51;100.00;92924.38;2135588;27;20034;-76
2022/10/22 03:36:08;;;;;;;1.77;0.40;;;;;;;9.50;100.00;92919.44;2135616;27;20431;-72
2022/10/22 03:37:09;;;;;;;1.35;0.38;;;;;;;9.49;100.00;92923.28;2130663;27;20029;-75
2022/10/22 03:38:11;;;;;;;2.45;0.40;;;;;;;9.52;100.00;92914.44;2126698;27;20034;-72
2022/10/22 03:39:15;;;;;;;2.00;0.50;;;;;;;9.50;100.00;92916.78;2126981;27;20023;-76
2022/10/22 03:40:17;;;;;;;1.00;0.43;;;;;;;9.48;100.00;92917.22;2135612;27;20133;-73
2022/10/22 03:41:18;;;;;;;3.65;0.43;;;;;;;9.53;100.00;92913.31;2133145;27;20042;-75
2022/10/22 03:42:20;;;;;;;0.57;0.43;;;;;;;9.51;100.00;92912.94;2135783;27;20464;-72
2022/10/22 03:43:21;;;;;;;2.38;0.60;;;;;;;9.52;100.00;92906.44;2135479;27;20030;-71
2022/10/22 03:44:23;;;;;;;2.60;0.40;;;;;;;9.53;100.00;92913.31;2135704;27;20034;-74
2022/10/22 03:45:24;;;;;;;0.65;0.60;;;;;;;9.55;100.00;92911.72;2132781;27;20114;-71
2022/10/22 03:46:25;;;;;;;0.90;0.90;;;;;;;9.54;100.00;92918.22;2135790;27;20365;-74
2022/10/22 03:47:26;;;;;;;3.78;0.70;;;;;;;9.56;100.00;92915.13;2133262;27;20039;-75
2022/10/22 03:48:27;;;;;;;0.52;0.47;;;;;;;9.57;100.00;92919.31;2135736;27;21455;-72
2022/10/22 03:49:28;;;;;;;1.05;0.50;;;;;;;9.52;100.00;92917.84;2135790;27;20663;-75
2022/10/22 03:50:29;;;;;;;0.95;0.45;;;;;;;9.52;100.00;92923.19;2135632;27;20027;-73
2022/10/22 03:51:31;;;;;;;4.57;0.80;;;;;;;9.50;100.00;92922.88;2135895;27;20034;-75
2022/10/22 03:52:37;;;;;;;1.95;0.60;;;;;;;9.50;100.00;92911.44;2134837;27;20082;-73
2022/10/22 03:53:38;;;;;;;1.85;0.80;;;;;;;9.47;100.00;92913.00;2131296;27;20073;-75
2022/10/22 03:54:40;;;;;;;0.75;0.50;;;;;;;9.51;100.00;92911.03;2135561;27;20480;-72
2022/10/22 03:55:41;;;;;;;1.00;0.60;;;;;;;9.52;100.00;92911.78;2135318;27;20022;-73
2022/10/22 03:56:43;;;;;;;2.47;0.50;;;;;;;9.49;100.00;92905.38;2135691;27;20029;-72
2022/10/22 03:57:44;;;;;;;1.70;0.65;;;;;;;9.50;100.00;92906.13;2134855;27;20105;-74
2022/10/22 03:58:45;;;;;;;2.47;0.60;;;;;;;9.46;100.00;92905.44;2135901;27;20034;-73
2022/10/22 03:59:46;;;;;;;4.03;0.77;;;;;;;9.45;100.00;92912.69;2118057;27;20065;-75
2022/10/22 04:00:47;;;;;;;0.65;0.57;;;;;;;9.47;100.00;92915.69;2118162;27;20056;-74
2022/10/22 04:01:48;;;;;;;2.47;0.50;;;;;;;9.48;100.00;92917.22;2123754;27;20571;-74
2022/10/22 04:02:49;;;;;;;1.42;0.50;;;;;;;9.46;100.00;92919.53;2127118;27;20033;-72
2022/10/22 04:03:50;;;;;;;3.50;1.02;;;;;;;9.52;100.00;92914.44;2136038;27;20034;-71
2022/10/22 04:04:51;;;;;;;3.40;0.50;;;;;;;9.58;100.00;92918.91;2137210;27;20027;-71
2022/10/22 04:05:52;;;;;;;0.73;0.50;;;;;;;9.73;100.00;92913.25;2126812;27;20062;-72
2022/10/22 04:06:53;;;;;;;2.40;0.40;;;;;;;9.57;100.00;92912.06;2128860;27;20445;-72
2022/10/22 04:07:54;;;;;;;3.15;0.40;;;;;;;9.63;100.00;92914.22;2135801;27;20065;-72
2022/10/22 04:08:55;;;;;;;1.63;0.50;;;;;;;9.56;100.00;92920.47;2135702;27;20022;-75
2022/10/22 04:09:56;;;;;;;3.85;0.60;;;;;;;9.51;100.00;92916.38;2135581;27;20105;-72
2022/10/22 04:10:57;;;;;;;0.40;0.40;;;;;;;9.49;100.00;92921.38;2135680;27;20018;-75
2022/10/22 04:11:59;;;;;;;1.30;0.40;;;;;;;9.45;100.00;92919.94;2135375;27;20034;-72
2022/10/22 04:13:00;;;;;;;1.67;0.50;;;;;;;9.41;100.00;92912.00;2135245;27;20026;-75
2022/10/22 04:14:01;;;;;;;4.65;0.55;;;;;;;9.36;100.00;92919.75;2131705;27;20055;-73
2022/10/22 04:15:02;;;;;;;0.88;0.88;;;;;;;9.30;100.00;92920.22;2122454;27;20159;-75
2022/10/22 04:16:22;;;;;;;3.00;1.00;;;;;;;9.30;100.00;92914.13;2125309;27;20040;-73
2022/10/22 04:17:23;;;;;;;2.63;0.75;;;;;;;9.29;100.00;92910.72;2124733;27;20038;-72
2022/10/22 04:18:24;;;;;;;0.70;0.70;;;;;;;9.31;100.00;92913.00;2127047;27;20144;-75
2022/10/22 04:19:25;;;;;;;3.45;0.60;;;;;;;9.36;100.00;92915.16;2125137;27;20262;-75
2022/10/22 04:20:25;;;;;;;2.40;0.82;;;;;;;9.32;100.00;92912.56;2126936;27;20490;-71
2022/10/22 04:21:26;;;;;;;2.05;0.85;;;;;;;9.33;100.00;92915.97;2127104;27;20445;-73
2022/10/22 04:22:27;;;;;;;2.72;0.68;;;;;;;9.31;100.00;92902.31;2126788;27;20031;-75
2022/10/22 04:23:28;;;;;;;2.22;0.60;;;;;;;9.31;100.00;92910.31;2126649;27;20019;-75
2022/10/22 04:24:30;;;;;;;3.47;0.75;;;;;;;9.28;100.00;92903.13;2125095;27;20106;-72
2022/10/22 04:25:31;;;;;;;2.70;0.70;;;;;;;9.31;100.00;92905.72;2126998;27;20365;-72
2022/10/22 04:26:34;;;;;;;1.48;0.70;;;;;;;9.34;100.00;92912.16;2122984;27;20057;-76
2022/10/22 04:27:35;;;;;;;2.63;0.73;;;;;;;9.33;100.00;92902.66;2126668;27;20043;-75
2022/10/22 04:28:36;;;;;;;1.02;0.68;;;;;;;9.32;100.00;92914.50;2126944;27;20027;-72
2022/10/22 04:29:39;;;;;;;0.80;0.80;;;;;;;9.29;100.00;92901.97;2124365;27;20055;-75
2022/10/22 04:30:40;;;;;;;2.05;0.57;;;;;;;9.28;100.00;92905.81;2126941;27;20034;-74
2022/10/22 04:31:41;;;;;;;2.63;0.73;;;;;;;9.27;100.00;92913.06;2126850;27;20030;-76
2022/10/22 04:32:42;;;;;;;0.70;0.70;;;;;;;9.27;100.00;92910.38;2126753;27;20022;-75
2022/10/22 04:33:43;;;;;;;0.60;0.60;;;;;;;9.28;100.00;92911.88;2126301;27;20087;-73
2022/10/22 04:34:44;;;;;;;2.88;0.82;;;;;;;9.28;100.00;92903.88;2125557;27;20147;-72
2022/10/22 04:35:45;;;;;;;2.00;0.63;;;;;;;9.29;100.00;92902.72;2126820;27;20053;-73
2022/10/22 04:36:46;;;;;;;2.00;0.80;;;;;;;9.50;100.00;92901.53;2126791;27;20027;-71
2022/10/22 04:37:47;;;;;;;0.68;0.68;;;;;;;9.43;100.00;92907.00;2126695;27;20027;-72
2022/10/22 04:38:52;;;;;;;1.30;0.80;;;;;;;9.49;100.00;92909.94;2125981;27;20517;-74
2022/10/22 04:39:53;;;;;;;1.20;0.95;;;;;;;9.65;100.00;92911.88;2124160;27;20084;-72
2022/10/22 04:40:54;;;;;;;3.35;2.00;;;;;;;9.86;100.00;92910.69;2126736;27;20031;-73
2022/10/22 04:41:55;;;;;;;3.20;1.30;;;;;;;9.67;100.00;92902.31;2126797;27;20027;-72
2022/10/22 04:42:56;;;;;;;2.03;1.60;;;;;;;9.58;100.00;92905.56;2129137;27;20037;-71
2022/10/22 04:43:58;;;;;;;4.55;1.48;;;;;;;9.60;100.00;92907.78;2126640;27;20058;-74
2022/10/22 04:44:59;;;;;;;3.30;1.60;;;;;;;9.64;100.00;92907.72;2124229;27;20019;-72
2022/10/22 04:46:00;;;;;;;5.38;1.88;;;;;;;9.58;100.00;92908.22;2124181;27;20050;-71
2022/10/22 04:47:00;;;;;;;2.33;1.77;;;;;;;9.59;100.00;92912.38;2127374;27;20024;-74
2022/10/22 04:48:02;;;;;;;4.00;2.00;;;;;;;9.62;100.00;92902.81;2130222;27;20086;-74
2022/10/22 04:49:03;;;;;;;3.03;2.08;;;;;;;9.66;100.00;92908.81;2127830;27;20497;-73
2022/10/22 04:50:05;;;;;;;4.03;2.08;;;;;;;9.59;100.00;92912.38;2130992;27;20030;-72
2022/10/22 04:51:07;;;;;;;7.65;2.22;;;;;;;9.68;100.00;92911.06;2122603;27;20430;-73
2022/10/22 04:52:08;;;;;;;9.95;2.83;;;;;;;9.77;100.00;92919.25;2122601;27;20110;-71
2022/10/22 04:53:09;;;;;;;3.15;2.50;;;;;;;9.75;100.00;92914.34;2126178;27;20019;-75
2022/10/22 04:54:10;;;;;;;5.55;2.35;;;;;;;9.80;100.00;92910.44;2125949;27;20035;-72
2022/10/22 04:55:11;;;;;;;13.80;2.90;;;;;;;9.71;100.00;92921.66;2125846;27;20075;-75
2022/10/22 04:56:20;;;;;;;6.30;2.95;;;;;;;9.77;100.00;92917.34;2126603;27;20356;-75
2022/10/22 04:57:21;;;;;;;14.02;3.42;;;;;;;9.75;100.00;92910.94;2126623;27;20023;-73
2022/10/22 04:58:22;;;;;;;24.15;3.95;;;;;;;9.84;100.00;92913.78;2126314;27;20018;-73
2022/10/22 04:59:23;;;;;;;27.48;3.97;;;;;;;9.79;100.00;92916.94;2126400;27;20096;-74
2022/10/22 05:00:24;;;;;;;17.75;3.67;;;;;;;9.84;100.00;92925.19;2124797;27;20034;-75
2022/10/22 05:01:30;;;;;;;21.15;3.92;;;;;;;9.79;100.00;92928.38;2124203;27;20077;-75
2022/10/22 05:02:34;;;;;;;13.50;3.88;;;;;;;9.87;100.00;92922.84;2126658;27;20106;-74
2022/10/22 05:03:35;;;;;;;24.17;4.18;;;;;;;9.86;100.00;92929.38;2126117;27;20031;-73
2022/10/22 05:04:36;;;;;;;18.10;4.15;;;;;;;9.79;100.00;92932.97;2126395;27;20102;-75